createdAt,value
2022-08-29T00:02:07.932Z,5.72
2022-08-29T00:04:37.884Z,5.15
2022-08-29T00:07:07.443Z,5.40
2022-08-29T00:09:36.005Z,4.80
2022-08-29T00:12:04.841Z,5.60
2022-08-29T00:14:33.501Z,4.68
2022-08-29T00:17:02.178Z,5.22
2022-08-29T00:19:30.600Z,5.15
2022-08-29T00:22:00.128Z,4.95
2022-08-29T00:24:28.503Z,4.15
2022-08-29T00:26:56.765Z,4.65
2022-08-29T00:29:25.076Z,4.90
2022-08-29T00:31:53.480Z,4.90
2022-08-29T00:34:23.061Z,5.00
2022-08-29T00:36:51.538Z,5.72
2022-08-29T00:39:23.172Z,5.22
2022-08-29T00:41:52.356Z,5.50
2022-08-29T00:44:20.852Z,5.45
2022-08-29T00:46:54.499Z,5.60
2022-08-29T00:49:33.955Z,5.97
2022-08-29T00:52:08.690Z,5.10
2022-08-29T00:54:40.823Z,5.20
2022-08-29T00:57:10.157Z,4.97
2022-08-29T00:59:41.042Z,5.57
2022-08-29T01:02:11.193Z,4.72
2022-08-29T01:04:40.556Z,5.35
2022-08-29T01:07:10.118Z,4.90
2022-08-29T01:09:43.055Z,5.45
2022-08-29T01:12:16.351Z,5.57
2022-08-29T01:14:49.091Z,6.28
2022-08-29T01:17:24.826Z,6.72
2022-08-29T01:19:58.996Z,5.68
2022-08-29T01:22:48.521Z,4.85
2022-08-29T01:25:22.379Z,4.32
2022-08-29T01:27:58.448Z,4.13
2022-08-29T01:30:27.012Z,4.10
2022-08-29T01:32:57.539Z,4.75
2022-08-29T01:35:26.536Z,5.20
2022-08-29T01:37:55.108Z,4.13
2022-08-29T01:40:30.802Z,4.60
2022-08-29T01:42:59.064Z,5.03
2022-08-29T01:45:27.355Z,3.95
2022-08-29T01:47:56.271Z,4.27
2022-08-29T01:50:24.661Z,4.80
2022-08-29T01:52:52.851Z,4.07
2022-08-29T01:55:21.325Z,4.23
2022-08-29T01:57:50.988Z,4.07
2022-08-29T02:00:20.004Z,3.47
2022-08-29T02:02:53.576Z,4.03
2022-08-29T02:05:23.025Z,3.83
2022-08-29T02:07:51.744Z,4.53
2022-08-29T02:10:20.171Z,4.30
2022-08-29T02:12:49.815Z,4.47
2022-08-29T02:15:19.057Z,4.93
2022-08-29T02:17:48.552Z,4.35
2022-08-29T02:20:17.572Z,5.20
2022-08-29T02:22:45.826Z,5.27
2022-08-29T02:25:31.521Z,5.57
2022-08-29T02:28:01.101Z,4.90
2022-08-29T02:30:29.344Z,5.00
2022-08-29T02:32:57.813Z,4.13
2022-08-29T02:35:26.252Z,4.40
2022-08-29T02:37:56.352Z,4.03
2022-08-29T02:40:31.672Z,3.70
2022-08-29T02:43:02.068Z,4.20
2022-08-29T02:45:30.858Z,4.17
2022-08-29T02:47:59.487Z,4.10
2022-08-29T02:50:28.027Z,4.13
2022-08-29T02:52:56.520Z,3.60
2022-08-29T02:55:26.680Z,3.70
2022-08-29T02:57:55.526Z,3.63
2022-08-29T03:00:28.138Z,3.90
2022-08-29T03:02:58.121Z,4.17
2022-08-29T03:05:32.426Z,3.60
2022-08-29T03:08:00.729Z,3.27
2022-08-29T03:10:29.917Z,3.03
2022-08-29T03:12:58.190Z,2.90
2022-08-29T03:15:28.212Z,3.13
2022-08-29T03:17:56.941Z,3.43
2022-08-29T03:20:26.656Z,3.30
2022-08-29T03:22:55.923Z,4.03
2022-08-29T03:25:25.979Z,4.30
2022-08-29T03:27:54.657Z,4.37
2022-08-29T03:30:23.994Z,5.00
2022-08-29T03:32:54.591Z,4.90
2022-08-29T03:35:23.829Z,5.30
2022-08-29T03:37:54.725Z,4.77
2022-08-29T03:40:24.956Z,4.80
2022-08-29T03:42:54.300Z,5.77
2022-08-29T03:45:24.088Z,5.90
2022-08-29T03:47:54.070Z,6.27
2022-08-29T03:50:24.482Z,5.03
2022-08-29T03:52:52.953Z,3.30
2022-08-29T03:55:21.449Z,3.57
2022-08-29T03:57:49.739Z,3.60
2022-08-29T04:00:20.200Z,4.10
2022-08-29T04:02:53.807Z,4.00
2022-08-29T04:05:23.718Z,3.63
2022-08-29T04:07:57.167Z,3.70
2022-08-29T04:10:29.258Z,4.20
2022-08-29T04:12:58.569Z,4.10
2022-08-29T04:15:29.426Z,4.07
2022-08-29T04:18:00.703Z,4.80
2022-08-29T04:20:34.412Z,4.20
2022-08-29T04:23:03.617Z,5.00
2022-08-29T04:25:37.212Z,4.97
2022-08-29T04:28:08.642Z,5.03
2022-08-29T04:30:38.363Z,4.93
2022-08-29T04:33:07.340Z,4.50
2022-08-29T04:35:37.354Z,4.80
2022-08-29T04:38:05.653Z,4.67
2022-08-29T04:40:34.324Z,5.40
2022-08-29T04:43:02.688Z,5.23
2022-08-29T04:45:31.040Z,4.70
2022-08-29T04:48:03.394Z,4.30
2022-08-29T04:50:32.291Z,5.00
2022-08-29T04:53:03.184Z,3.90
2022-08-29T04:55:31.450Z,4.87
2022-08-29T04:58:00.101Z,4.73
2022-08-29T05:00:30.721Z,4.27
2022-08-29T05:03:00.149Z,4.43
2022-08-29T05:05:28.962Z,4.77
2022-08-29T05:07:57.243Z,4.93
2022-08-29T05:10:27.019Z,4.47
2022-08-29T05:12:55.240Z,4.47
2022-08-29T05:15:23.553Z,4.17
2022-08-29T05:17:54.178Z,4.27
2022-08-29T05:20:22.935Z,4.00
2022-08-29T05:22:51.193Z,4.77
2022-08-29T05:25:19.724Z,4.40
2022-08-29T05:27:49.375Z,5.63
2022-08-29T05:30:25.042Z,5.17
2022-08-29T05:33:02.699Z,6.10
2022-08-29T05:35:31.006Z,5.57
2022-08-29T05:37:59.329Z,5.90
2022-08-29T05:40:27.743Z,5.30
2022-08-29T05:42:57.385Z,5.20
2022-08-29T05:45:26.160Z,5.27
2022-08-29T05:47:55.969Z,5.53
2022-08-29T05:50:24.958Z,6.03
2022-08-29T05:52:53.203Z,5.87
2022-08-29T05:55:21.839Z,5.83
2022-08-29T05:57:53.508Z,5.60
2022-08-29T06:00:23.416Z,5.30
2022-08-29T06:02:55.821Z,5.73
2022-08-29T06:05:24.539Z,5.72
2022-08-29T06:07:52.761Z,5.60
2022-08-29T06:10:21.354Z,6.40
2022-08-29T06:12:49.703Z,6.18
2022-08-29T06:15:18.556Z,6.53
2022-08-29T06:17:48.145Z,6.68
2022-08-29T06:20:16.567Z,6.43
2022-08-29T06:22:44.855Z,7.10
2022-08-29T06:25:35.590Z,6.82
2022-08-29T06:28:01.796Z,7.80
2022-08-29T06:30:34.688Z,7.20
2022-08-29T06:33:06.283Z,7.95
2022-08-29T06:35:34.595Z,7.30
2022-08-29T06:38:03.267Z,7.70
2022-08-29T06:40:31.622Z,7.38
2022-08-29T06:43:00.122Z,7.82
2022-08-29T06:45:28.548Z,7.95
2022-08-29T06:47:56.825Z,7.20
2022-08-29T06:50:26.402Z,7.40
2022-08-29T06:52:55.673Z,7.28
2022-08-29T06:55:24.424Z,8.88
2022-08-29T06:57:52.683Z,8.55
2022-08-29T07:00:22.477Z,8.90
2022-08-29T07:02:52.790Z,8.27
2022-08-29T07:05:22.523Z,8.23
2022-08-29T07:07:52.949Z,8.13
2022-08-29T07:10:22.828Z,9.02
2022-08-29T07:12:52.620Z,9.55
2022-08-29T07:15:22.219Z,8.90
2022-08-29T07:17:51.145Z,9.02
2022-08-29T07:20:19.826Z,8.23
2022-08-29T07:22:51.371Z,8.60
2022-08-29T07:25:23.233Z,8.57
2022-08-29T07:27:53.471Z,9.05
2022-08-29T07:30:22.838Z,8.30
2022-08-29T07:32:51.532Z,8.35
2022-08-29T07:35:30.043Z,8.75
2022-08-29T07:38:01.090Z,9.57
2022-08-29T07:40:31.315Z,8.73
2022-08-29T07:42:59.641Z,9.40
2022-08-29T07:45:27.960Z,9.05
2022-08-29T07:47:56.405Z,8.40
2022-08-29T07:50:24.644Z,8.93
2022-08-29T07:52:52.895Z,7.85
2022-08-29T07:55:22.946Z,8.68
2022-08-29T07:57:53.945Z,8.45
2022-08-29T08:00:22.380Z,8.23
2022-08-29T08:02:51.444Z,9.45
2022-08-29T08:05:19.961Z,8.77
2022-08-29T08:07:55.658Z,7.38
2022-08-29T08:10:24.764Z,7.38
2022-08-29T08:12:54.400Z,7.90
2022-08-29T08:15:23.052Z,7.90
2022-08-29T08:17:51.279Z,7.43
2022-08-29T08:20:19.699Z,6.80
2022-08-29T08:22:47.973Z,6.68
2022-08-29T08:25:16.258Z,6.80
2022-08-29T08:27:44.481Z,7.43
2022-08-29T08:30:15.502Z,6.50
2022-08-29T08:32:46.564Z,6.35
2022-08-29T08:35:19.642Z,6.93
2022-08-29T08:37:49.467Z,6.30
2022-08-29T08:40:28.119Z,6.93
2022-08-29T08:43:00.431Z,6.88
2022-08-29T08:45:35.267Z,6.55
2022-08-29T08:48:10.191Z,5.93
2022-08-29T08:50:53.822Z,5.95
2022-08-29T08:53:33.097Z,6.25
2022-08-29T08:56:04.821Z,6.00
2022-08-29T08:58:37.839Z,6.18
2022-08-29T09:01:23.093Z,5.50
2022-08-29T09:04:12.979Z,5.45
2022-08-29T09:06:56.275Z,5.78
2022-08-29T09:09:36.612Z,5.55
2022-08-29T09:12:19.800Z,5.93
2022-08-29T09:15:01.560Z,5.72
2022-08-29T09:17:37.183Z,5.20
2022-08-29T09:20:09.760Z,4.60
2022-08-29T09:22:40.765Z,5.05
2022-08-29T09:25:13.422Z,5.38
2022-08-29T09:27:41.748Z,5.90
2022-08-29T09:30:15.237Z,5.10
2022-08-29T09:33:00.809Z,4.97
2022-08-29T09:35:37.078Z,4.47
2022-08-29T09:38:08.359Z,5.28
2022-08-29T09:40:52.592Z,5.05
2022-08-29T09:43:31.745Z,5.25
2022-08-29T09:46:25.069Z,5.07
2022-08-29T09:49:13.819Z,4.93
2022-08-29T09:51:45.665Z,4.40
2022-08-29T09:54:31.287Z,4.15
2022-08-29T09:57:05.607Z,4.63
2022-08-29T09:59:36.337Z,4.43
2022-08-29T10:02:31.828Z,4.30
2022-08-29T10:05:05.961Z,3.92
2022-08-29T10:07:50.693Z,3.65
2022-08-29T10:10:21.462Z,3.92
2022-08-29T10:13:00.267Z,3.72
2022-08-29T10:15:49.995Z,4.00
2022-08-29T10:18:28.159Z,3.80
2022-08-29T10:21:15.933Z,4.40
2022-08-29T10:23:59.826Z,4.00
2022-08-29T10:26:40.147Z,4.25
2022-08-29T10:29:20.445Z,4.55
2022-08-29T10:31:58.830Z,4.63
2022-08-29T10:34:43.265Z,4.43
2022-08-29T10:37:23.801Z,4.10
2022-08-29T10:40:01.327Z,4.18
2022-08-29T10:42:34.892Z,4.10
2022-08-29T10:45:15.563Z,4.43
2022-08-29T10:47:53.832Z,4.43
2022-08-29T10:50:44.153Z,4.57
2022-08-29T10:53:21.612Z,4.10
2022-08-29T10:55:56.021Z,4.32
2022-08-29T10:58:40.757Z,4.38
2022-08-29T11:01:15.126Z,3.60
2022-08-29T11:03:50.214Z,3.75
2022-08-29T11:06:24.120Z,4.57
2022-08-29T11:09:03.628Z,4.28
2022-08-29T11:11:34.594Z,4.43
2022-08-29T11:14:09.494Z,3.67
2022-08-29T11:16:43.302Z,3.88
2022-08-29T11:19:22.421Z,4.18
2022-08-29T11:21:58.401Z,4.32
2022-08-29T11:24:34.533Z,4.35
2022-08-29T11:27:11.309Z,3.63
2022-08-29T11:29:53.447Z,4.22
2022-08-29T11:32:36.280Z,3.92
2022-08-29T11:35:20.588Z,3.83
2022-08-29T11:38:14.925Z,3.75
2022-08-29T11:43:53.850Z,3.33
2022-08-29T11:46:41.320Z,4.15
2022-08-29T11:49:39.197Z,3.83
2022-08-29T11:52:25.651Z,3.35
2022-08-29T11:55:31.172Z,3.60
2022-08-29T11:58:25.740Z,3.90
2022-08-29T12:00:56.169Z,4.00
2022-08-29T12:03:48.254Z,4.18
2022-08-29T12:06:35.043Z,3.40
2022-08-29T12:09:20.479Z,3.30
2022-08-29T12:12:41.655Z,3.55
2022-08-29T12:15:52.879Z,3.67
2022-08-29T12:18:45.064Z,3.20
2022-08-29T12:21:45.583Z,3.38
2022-08-29T12:24:43.541Z,3.80
2022-08-29T12:28:01.401Z,3.53
2022-08-29T12:30:34.284Z,3.15
2022-08-29T12:33:17.751Z,3.20
2022-08-29T12:36:14.579Z,3.38
2022-08-29T12:38:59.861Z,3.60
2022-08-29T12:41:46.789Z,3.55
2022-08-29T12:44:21.705Z,3.75
2022-08-29T12:46:55.434Z,2.97
2022-08-29T12:49:29.679Z,3.30
2022-08-29T12:52:01.897Z,2.80
2022-08-29T12:54:34.222Z,3.22
2022-08-29T12:57:04.885Z,3.40
2022-08-29T12:59:35.101Z,3.47
2022-08-29T13:02:03.752Z,3.60
2022-08-29T13:04:33.961Z,3.05
2022-08-29T13:07:05.366Z,3.22
2022-08-29T13:09:39.363Z,3.30
2022-08-29T13:12:12.027Z,3.00
2022-08-29T13:15:00.681Z,3.38
2022-08-29T13:17:34.966Z,3.28
2022-08-29T13:20:47.535Z,3.45
2022-08-29T13:23:27.193Z,3.42
2022-08-29T13:26:00.373Z,3.15
2022-08-29T13:28:36.711Z,3.35
2022-08-29T13:31:09.343Z,3.13
2022-08-29T13:33:39.252Z,2.85
2022-08-29T13:36:39.918Z,2.67
2022-08-29T13:39:44.614Z,2.88
2022-08-29T13:42:22.573Z,2.63
2022-08-29T13:45:23.878Z,2.95
2022-08-29T13:48:13.699Z,2.97
2022-08-29T13:50:42.593Z,3.05
2022-08-29T13:53:12.307Z,3.10
2022-08-29T13:55:43.368Z,2.80
2022-08-29T13:58:14.928Z,3.03
2022-08-29T14:00:44.433Z,3.30
2022-08-29T14:03:16.966Z,3.20
2022-08-29T14:05:45.690Z,2.88
2022-08-29T14:08:15.555Z,3.00
2022-08-29T14:10:44.927Z,3.15
2022-08-29T14:13:13.356Z,3.38
2022-08-29T14:15:41.765Z,3.58
2022-08-29T14:18:10.330Z,2.80
2022-08-29T14:20:39.111Z,2.97
2022-08-29T14:23:07.668Z,2.88
2022-08-29T14:25:37.322Z,3.42
2022-08-29T14:28:06.345Z,2.97
2022-08-29T14:30:34.639Z,2.90
2022-08-29T14:33:02.941Z,3.05
2022-08-29T14:35:32.178Z,2.38
2022-08-29T14:38:02.721Z,3.10
2022-08-29T14:40:32.584Z,2.83
2022-08-29T14:43:03.352Z,2.85
2022-08-29T14:45:33.230Z,2.90
2022-08-29T14:48:02.525Z,2.42
2022-08-29T14:50:31.315Z,3.10
2022-08-29T14:53:00.067Z,3.08
2022-08-29T14:55:28.802Z,3.00
2022-08-29T14:57:57.125Z,3.03
2022-08-29T15:00:29.976Z,2.83
2022-08-29T15:02:58.483Z,3.05
2022-08-29T15:05:27.105Z,3.47
2022-08-29T15:07:56.088Z,3.00
2022-08-29T15:10:25.896Z,3.17
2022-08-29T15:12:54.670Z,3.10
2022-08-29T15:15:29.152Z,3.20
2022-08-29T15:18:01.975Z,3.17
2022-08-29T15:20:36.222Z,3.20
2022-08-29T15:23:05.672Z,2.88
2022-08-29T15:25:34.424Z,3.08
2022-08-29T15:28:05.587Z,2.83
2022-08-29T15:30:35.312Z,2.83
2022-08-29T15:33:05.265Z,3.15
2022-08-29T15:35:33.890Z,3.20
2022-08-29T15:38:02.475Z,3.17
2022-08-29T15:40:30.892Z,3.35
2022-08-29T15:42:59.188Z,2.65
2022-08-29T15:45:27.479Z,3.00
2022-08-29T15:47:55.873Z,2.85
2022-08-29T15:50:27.871Z,3.10
2022-08-29T15:52:57.097Z,2.40
2022-08-29T15:55:25.362Z,2.85
2022-08-29T15:57:53.807Z,2.95
2022-08-29T16:00:29.775Z,2.70
2022-08-29T16:03:03.151Z,2.85
2022-08-29T16:05:34.295Z,3.10
2022-08-29T16:08:03.494Z,3.08
2022-08-29T16:10:32.405Z,2.97
2022-08-29T16:13:00.760Z,3.03
2022-08-29T16:15:31.352Z,3.20
2022-08-29T16:18:00.782Z,3.13
2022-08-29T16:20:30.143Z,3.22
2022-08-29T16:23:00.593Z,3.20
2022-08-29T16:25:31.054Z,2.97
2022-08-29T16:28:00.935Z,3.13
2022-08-29T16:30:30.213Z,2.97
2022-08-29T16:32:59.043Z,3.28
2022-08-29T16:35:52.608Z,3.15
2022-08-29T16:38:22.286Z,2.92
2022-08-29T16:40:50.840Z,3.30
2022-08-29T16:43:19.540Z,3.22
2022-08-29T16:45:47.935Z,2.72
2022-08-29T16:48:17.712Z,2.90
2022-08-29T16:50:47.174Z,2.92
2022-08-29T16:53:15.467Z,2.97
2022-08-29T16:55:45.020Z,2.85
2022-08-29T16:58:30.837Z,2.80
2022-08-29T17:00:59.235Z,2.70
2022-08-29T17:03:27.807Z,2.72
2022-08-29T17:05:56.061Z,2.88
2022-08-29T17:08:23.310Z,2.83
2022-08-29T17:10:51.828Z,2.75
2022-08-29T17:13:18.957Z,3.03
2022-08-29T17:15:46.121Z,2.80
2022-08-29T17:18:14.569Z,3.10
2022-08-29T17:20:46.267Z,2.97
2022-08-29T17:23:15.745Z,2.95
2022-08-29T17:25:44.134Z,2.80
2022-08-29T17:28:18.263Z,3.28
2022-08-29T17:30:47.748Z,2.80
2022-08-29T17:33:16.294Z,2.70
2022-08-29T17:35:44.671Z,2.85
2022-08-29T17:38:14.976Z,2.83
2022-08-29T17:40:44.167Z,3.03
2022-08-29T17:43:14.448Z,3.10
2022-08-29T17:45:43.205Z,3.17
2022-08-29T17:48:12.147Z,2.80
2022-08-29T17:50:41.959Z,2.90
2022-08-29T17:53:10.494Z,3.20
2022-08-29T17:55:39.018Z,3.10
2022-08-29T17:58:07.462Z,2.75
2022-08-29T18:00:37.233Z,2.60
2022-08-29T18:03:07.385Z,2.75
2022-08-29T18:05:35.719Z,2.90
2022-08-29T18:08:05.110Z,2.70
2022-08-29T18:10:33.561Z,2.90
2022-08-29T18:13:01.861Z,3.00
2022-08-29T18:15:30.107Z,2.83
2022-08-29T18:18:05.532Z,2.47
2022-08-29T18:20:33.922Z,3.03
2022-08-29T18:23:02.229Z,2.50
2022-08-29T18:25:30.556Z,2.90
2022-08-29T18:27:58.805Z,2.97
2022-08-29T18:30:27.571Z,2.85
2022-08-29T18:32:56.004Z,2.83
2022-08-29T18:35:25.852Z,2.67
2022-08-29T18:37:54.088Z,2.90
2022-08-29T18:40:22.443Z,3.25
2022-08-29T18:42:52.599Z,3.33
2022-08-29T18:45:21.456Z,3.33
2022-08-29T18:47:49.710Z,2.65
2022-08-29T18:50:36.596Z,3.17
2022-08-29T18:53:10.793Z,3.05
2022-08-29T18:55:39.764Z,2.72
2022-08-29T18:58:09.585Z,2.70
2022-08-29T19:00:38.255Z,2.78
2022-08-29T19:03:07.229Z,2.95
2022-08-29T19:05:36.463Z,3.20
2022-08-29T19:08:06.406Z,2.45
2022-08-29T19:10:35.698Z,3.30
2022-08-29T19:13:04.033Z,3.28
2022-08-29T19:15:32.341Z,2.88
2022-08-29T19:18:01.086Z,3.05
2022-08-29T19:20:47.679Z,3.30
2022-08-29T19:23:18.407Z,2.40
2022-08-29T19:25:47.154Z,3.10
2022-08-29T19:28:17.089Z,3.00
2022-08-29T19:30:46.444Z,3.30
2022-08-29T19:33:17.885Z,3.10
2022-08-29T19:35:49.034Z,3.15
2022-08-29T19:38:21.000Z,3.10
2022-08-29T19:40:52.346Z,3.20
2022-08-29T19:43:20.751Z,3.28
2022-08-29T19:45:49.056Z,3.10
2022-08-29T19:48:20.384Z,3.03
2022-08-29T19:50:49.958Z,3.17
2022-08-29T19:53:26.919Z,3.50
2022-08-29T19:55:56.831Z,3.03
2022-08-29T19:58:31.404Z,3.35
2022-08-29T20:01:02.648Z,3.00
2022-08-29T20:03:32.591Z,3.28
2022-08-29T20:06:06.163Z,3.10
2022-08-29T20:08:38.031Z,3.63
2022-08-29T20:11:06.820Z,3.60
2022-08-29T20:13:36.319Z,3.22
2022-08-29T20:16:13.110Z,3.08
2022-08-29T20:18:41.945Z,3.33
2022-08-29T20:21:10.512Z,2.67
2022-08-29T20:23:49.140Z,3.15
2022-08-29T20:26:18.668Z,3.35
2022-08-29T20:28:47.414Z,2.85
2022-08-29T20:31:15.841Z,2.58
2022-08-29T20:33:44.884Z,3.00
2022-08-29T20:36:32.235Z,3.28
2022-08-29T20:39:01.937Z,3.22
2022-08-29T20:41:30.223Z,3.25
2022-08-29T20:44:06.817Z,3.25
2022-08-29T20:46:37.539Z,3.25
2022-08-29T20:49:05.808Z,3.15
2022-08-29T20:51:36.333Z,3.35
2022-08-29T20:54:06.686Z,2.90
2022-08-29T20:56:35.023Z,3.15
2022-08-29T20:59:03.949Z,2.90
2022-08-29T21:01:33.205Z,3.35
2022-08-29T21:04:21.170Z,2.97
2022-08-29T21:06:50.298Z,3.15
2022-08-29T21:09:19.893Z,3.00
2022-08-29T21:11:48.109Z,2.85
2022-08-29T21:14:16.549Z,3.00
2022-08-29T21:16:46.156Z,3.10
2022-08-29T21:19:14.424Z,3.05
2022-08-29T21:21:43.326Z,3.20
2022-08-29T21:24:11.947Z,2.97
2022-08-29T21:26:41.618Z,3.05
2022-08-29T21:29:10.192Z,3.10
2022-08-29T21:31:39.473Z,3.38
2022-08-29T21:34:10.355Z,3.10
2022-08-29T21:36:40.328Z,3.08
2022-08-29T21:39:11.577Z,3.75
2022-08-29T21:41:45.863Z,3.15
2022-08-29T21:44:15.869Z,3.45
2022-08-29T21:46:46.633Z,3.30
2022-08-29T21:49:19.518Z,3.30
2022-08-29T21:51:49.004Z,3.92
2022-08-29T21:54:19.070Z,3.42
2022-08-29T21:56:50.261Z,4.25
2022-08-29T21:59:20.782Z,3.58
2022-08-29T22:04:42.781Z,3.67
2022-08-29T22:07:23.557Z,5.05
2022-08-29T22:09:53.581Z,4.47
2022-08-29T22:12:24.976Z,4.65
2022-08-29T22:15:25.543Z,4.85
2022-08-29T22:17:53.821Z,3.92
2022-08-29T22:20:22.552Z,3.65
2022-08-29T22:22:51.304Z,3.80
2022-08-29T22:25:20.205Z,4.00
2022-08-29T22:27:49.813Z,4.18
2022-08-29T22:30:18.681Z,3.90
2022-08-29T22:32:52.801Z,3.95
2022-08-29T22:35:22.863Z,3.95
2022-08-29T22:37:54.311Z,3.80
2022-08-29T22:40:23.032Z,4.60
2022-08-29T22:42:53.119Z,3.60
2022-08-29T22:45:21.710Z,3.53
2022-08-29T22:47:49.918Z,4.03
2022-08-29T22:50:21.120Z,3.78
2022-08-29T22:52:50.451Z,3.72
2022-08-29T22:57:49.894Z,3.58
2022-08-29T23:00:23.143Z,3.78
2022-08-29T23:02:53.086Z,4.13
2022-08-29T23:05:24.161Z,4.03
2022-08-29T23:07:52.581Z,3.80
2022-08-29T23:10:22.123Z,4.03
2022-08-29T23:12:50.711Z,3.90
2022-08-29T23:15:20.641Z,4.35
2022-08-29T23:17:48.927Z,3.88
2022-08-29T23:20:19.204Z,4.13
2022-08-29T23:22:48.604Z,4.10
2022-08-29T23:25:18.189Z,3.60
2022-08-29T23:27:46.441Z,3.67
2022-08-29T23:30:15.721Z,3.25
2022-08-29T23:32:45.359Z,3.38
2022-08-29T23:35:13.841Z,4.05
2022-08-29T23:37:42.062Z,3.83
2022-08-29T23:40:11.394Z,3.67
2022-08-29T23:42:40.188Z,3.88
2022-08-29T23:45:11.268Z,3.80
2022-08-29T23:47:39.514Z,3.90
2022-08-29T23:50:10.847Z,4.30
2022-08-29T23:52:39.176Z,4.40
2022-08-29T23:55:15.156Z,4.90
2022-08-29T23:57:43.996Z,4.38
